createdAt,value
2018-05-14T00:01:12.644Z,64.30
2018-05-14T00:03:41.557Z,64.40
2018-05-14T00:06:10.304Z,64.90
2018-05-14T00:08:39.039Z,65.40
2018-05-14T00:11:08.591Z,64.80
2018-05-14T00:13:37.377Z,64.80
2018-05-14T00:16:06.147Z,66.60
2018-05-14T00:18:35.136Z,66.90
2018-05-14T00:21:04.250Z,67.80
2018-05-14T00:23:33.801Z,65.80
2018-05-14T00:26:03.457Z,65.80
2018-05-14T00:28:32.227Z,65.80
2018-05-14T00:31:01.059Z,64.40
2018-05-14T00:33:29.825Z,63.70
2018-05-14T00:35:58.665Z,64.00
2018-05-14T00:38:27.461Z,64.10
2018-05-14T00:40:56.244Z,64.10
2018-05-14T00:43:24.987Z,65.70
2018-05-14T00:45:53.816Z,66.80
2018-05-14T00:48:22.632Z,67.40
2018-05-14T00:50:51.588Z,67.50
2018-05-14T00:53:20.399Z,67.40
2018-05-14T00:55:49.135Z,67.00
2018-05-14T00:58:17.917Z,66.80
2018-05-14T01:00:46.688Z,66.40
2018-05-14T01:03:15.480Z,66.30
2018-05-14T01:05:44.281Z,66.40
2018-05-14T01:08:13.056Z,68.80
2018-05-14T01:10:42.130Z,68.10
2018-05-14T01:13:12.800Z,66.80
2018-05-14T01:15:42.280Z,66.90
2018-05-14T01:18:12.262Z,67.50
2018-05-14T01:20:42.068Z,67.10
2018-05-14T01:23:10.804Z,66.20
2018-05-14T01:25:39.585Z,65.60
2018-05-14T01:28:09.186Z,66.40
2018-05-14T01:30:38.606Z,67.00
2018-05-14T01:33:07.467Z,67.00
2018-05-14T01:35:36.289Z,66.90
2018-05-14T01:38:04.969Z,67.50
2018-05-14T01:40:33.955Z,67.30
2018-05-14T01:43:02.705Z,67.70
2018-05-14T01:45:31.449Z,68.40
2018-05-14T01:48:00.288Z,67.70
2018-05-14T01:50:29.056Z,66.40
2018-05-14T01:52:58.610Z,65.10
2018-05-14T01:55:27.388Z,65.10
2018-05-14T01:57:56.280Z,66.50
2018-05-14T02:00:25.135Z,65.80
2018-05-14T02:02:53.931Z,65.20
2018-05-14T02:05:22.702Z,64.90
2018-05-14T02:07:51.512Z,64.40
2018-05-14T02:10:20.277Z,64.10
2018-05-14T02:12:49.067Z,64.50
2018-05-14T02:15:17.876Z,64.80
2018-05-14T02:17:46.735Z,65.50
2018-05-14T02:20:15.530Z,66.40
2018-05-14T02:22:44.494Z,67.10
2018-05-14T02:25:13.311Z,68.10
2018-05-14T02:27:42.721Z,67.20
2018-05-14T02:30:12.613Z,67.90
2018-05-14T02:32:43.255Z,67.70
2018-05-14T02:35:12.790Z,67.70
2018-05-14T02:37:42.607Z,68.20
2018-05-14T02:40:11.913Z,68.90
2018-05-14T02:42:40.655Z,68.30
2018-05-14T02:45:09.456Z,67.60
2018-05-14T02:47:39.008Z,68.20
2018-05-14T02:50:07.815Z,68.20
2018-05-14T02:52:36.917Z,67.20
2018-05-14T02:55:05.715Z,67.20
2018-05-14T02:57:35.311Z,67.70
2018-05-14T03:00:04.078Z,67.70
2018-05-14T03:02:32.920Z,67.90
2018-05-14T03:05:01.834Z,67.30
2018-05-14T03:07:30.617Z,67.50
2018-05-14T03:10:00.099Z,67.50
2018-05-14T03:12:29.648Z,66.90
2018-05-14T03:14:58.417Z,66.90
2018-05-14T03:17:27.196Z,66.90
2018-05-14T03:19:55.990Z,67.00
2018-05-14T03:22:24.825Z,66.80
2018-05-14T03:24:54.390Z,66.00
2018-05-14T03:27:23.350Z,66.00
2018-05-14T03:29:52.101Z,66.10
2018-05-14T03:32:20.869Z,67.70
2018-05-14T03:34:49.647Z,69.30
2018-05-14T03:37:18.405Z,69.30
2018-05-14T03:39:47.158Z,68.00
2018-05-14T03:42:15.930Z,67.60
2018-05-14T03:44:45.385Z,68.00
2018-05-14T03:47:15.185Z,67.30
2018-05-14T03:49:44.708Z,67.60
2018-05-14T03:52:13.778Z,67.60
2018-05-14T03:54:43.289Z,66.80
2018-05-14T03:57:14.011Z,67.10
2018-05-14T03:59:54.973Z,67.10
2018-05-14T04:02:36.621Z,66.90
2018-05-14T04:05:14.965Z,66.50
2018-05-14T04:07:43.767Z,66.70
2018-05-14T04:10:13.374Z,66.80
2018-05-14T04:12:42.133Z,66.40
2018-05-14T04:15:10.911Z,66.90
2018-05-14T04:17:39.805Z,67.10
2018-05-14T04:20:08.579Z,67.90
2018-05-14T04:22:37.387Z,67.20
2018-05-14T04:25:06.107Z,66.80
2018-05-14T04:27:34.888Z,67.00
2018-05-14T04:30:03.649Z,66.80
2018-05-14T04:32:32.416Z,66.50
2018-05-14T04:35:01.207Z,66.50
2018-05-14T04:37:30.391Z,66.50
2018-05-14T04:39:59.937Z,66.60
2018-05-14T04:42:29.476Z,66.60
2018-05-14T04:44:58.242Z,66.60
2018-05-14T04:47:27.478Z,67.90
2018-05-14T04:49:57.028Z,67.40
2018-05-14T04:52:25.792Z,67.30
2018-05-14T04:54:54.559Z,66.60
2018-05-14T04:57:24.111Z,67.20
2018-05-14T04:59:52.888Z,67.20
2018-05-14T05:02:21.650Z,67.20
2018-05-14T05:04:51.202Z,68.50
2018-05-14T05:07:19.985Z,68.40
2018-05-14T05:09:48.751Z,68.60
2018-05-14T05:12:17.653Z,69.60
2018-05-14T05:14:46.410Z,71.20
2018-05-14T05:17:15.176Z,71.50
2018-05-14T05:19:43.966Z,68.60
2018-05-14T05:22:13.868Z,66.50
2018-05-14T05:24:42.641Z,66.30
2018-05-14T05:27:11.419Z,66.40
2018-05-14T05:29:40.239Z,66.20
2018-05-14T05:32:09.018Z,66.90
2018-05-14T05:34:37.883Z,66.60
2018-05-14T05:37:06.641Z,66.90
2018-05-14T05:39:35.451Z,66.80
2018-05-14T05:42:04.351Z,67.00
2018-05-14T05:44:33.397Z,66.80
2018-05-14T05:47:02.128Z,67.30
2018-05-14T05:49:31.022Z,69.70
2018-05-14T05:51:59.815Z,70.30
2018-05-14T05:54:28.564Z,70.10
2018-05-14T05:56:58.189Z,68.00
2018-05-14T05:59:26.962Z,68.00
2018-05-14T06:01:55.757Z,67.50
2018-05-14T06:04:24.535Z,67.80
2018-05-14T06:06:53.272Z,69.70
2018-05-14T06:09:22.060Z,68.30
2018-05-14T06:11:51.572Z,67.60
2018-05-14T06:14:20.367Z,67.60
2018-05-14T06:16:49.133Z,67.10
2018-05-14T06:19:18.058Z,67.60
2018-05-14T06:21:46.781Z,67.30
2018-05-14T06:24:15.546Z,67.60
2018-05-14T06:26:44.387Z,68.50
2018-05-14T06:29:14.986Z,69.10
2018-05-14T06:31:44.433Z,69.10
2018-05-14T06:34:13.209Z,68.60
2018-05-14T06:36:42.736Z,68.40
2018-05-14T06:39:11.495Z,68.40
2018-05-14T06:41:40.225Z,68.90
2018-05-14T06:44:09.020Z,68.00
2018-05-14T06:46:37.877Z,67.70
2018-05-14T06:49:07.457Z,69.20
2018-05-14T06:51:36.293Z,69.10
2018-05-14T06:54:05.110Z,67.70
2018-05-14T06:56:33.877Z,68.40
2018-05-14T06:59:02.690Z,69.20
2018-05-14T07:01:31.504Z,70.20
2018-05-14T07:04:00.262Z,69.30
2018-05-14T07:06:28.993Z,69.90
2018-05-14T07:08:57.841Z,69.70
2018-05-14T07:11:26.706Z,68.20
2018-05-14T07:13:55.469Z,70.00
2018-05-14T07:16:25.066Z,69.30
2018-05-14T07:18:53.850Z,69.10
2018-05-14T07:21:22.669Z,68.60
2018-05-14T07:23:52.204Z,69.80
2018-05-14T07:26:20.999Z,69.80
2018-05-14T07:28:49.777Z,69.20
2018-05-14T07:31:18.662Z,69.80
2018-05-14T07:33:47.410Z,68.90
2018-05-14T07:36:16.196Z,69.50
2018-05-14T07:38:45.042Z,70.10
2018-05-14T07:41:14.864Z,69.80
2018-05-14T07:43:44.774Z,67.70
2018-05-14T07:46:13.560Z,67.10
2018-05-14T07:48:42.348Z,68.00
2018-05-14T07:51:11.121Z,69.10
2018-05-14T07:53:39.983Z,69.50
2018-05-14T07:56:09.016Z,70.80
2018-05-14T07:58:37.801Z,71.70
2018-05-14T08:01:06.541Z,70.60
2018-05-14T08:03:35.333Z,71.30
2018-05-14T08:06:04.177Z,72.10
2018-05-14T08:08:32.948Z,72.70
2018-05-14T08:11:02.725Z,72.50
2018-05-14T08:13:31.461Z,71.90
2018-05-14T08:16:00.234Z,70.80
2018-05-14T08:18:28.975Z,70.60
2018-05-14T08:20:58.426Z,71.40
2018-05-14T08:23:27.436Z,72.20
2018-05-14T08:25:56.900Z,72.60
2018-05-14T08:28:26.869Z,75.40
2018-05-14T08:30:56.306Z,75.40
2018-05-14T08:33:26.768Z,74.80
2018-05-14T08:35:55.896Z,74.80
2018-05-14T08:38:26.045Z,74.80
2018-05-14T08:40:55.444Z,74.00
2018-05-14T08:43:25.714Z,74.20
2018-05-14T08:45:54.704Z,73.70
2018-05-14T08:48:24.504Z,72.30
2018-05-14T08:50:54.850Z,72.60
2018-05-14T08:53:24.157Z,72.10
2018-05-14T08:55:53.139Z,72.50
2018-05-14T08:58:22.930Z,74.00
2018-05-14T09:00:52.018Z,73.90
2018-05-14T09:03:20.772Z,74.90
2018-05-14T09:05:50.477Z,74.40
2018-05-14T09:08:20.176Z,74.80
2018-05-14T09:10:49.166Z,74.70
2018-05-14T09:13:18.481Z,74.20
2018-05-14T09:15:47.252Z,74.10
2018-05-14T09:18:16.019Z,74.80
2018-05-14T09:20:45.603Z,72.20
2018-05-14T09:23:15.351Z,74.40
2018-05-14T09:25:44.145Z,75.10
2018-05-14T09:28:12.880Z,73.20
2018-05-14T09:30:41.645Z,71.30
2018-05-14T09:33:10.438Z,72.60
2018-05-14T09:35:39.209Z,74.40
2018-05-14T09:38:08.022Z,74.20
2018-05-14T09:40:36.843Z,74.30
2018-05-14T09:43:06.307Z,73.30
2018-05-14T09:45:36.146Z,72.60
2018-05-14T09:48:07.330Z,70.40
2018-05-14T09:50:36.196Z,70.00
2018-05-14T09:53:04.998Z,73.30
2018-05-14T09:55:33.774Z,70.10
2018-05-14T09:58:02.570Z,72.70
2018-05-14T10:00:31.293Z,71.30
2018-05-14T10:03:00.176Z,71.30
2018-05-14T10:05:29.962Z,72.70
2018-05-14T10:07:59.319Z,70.70
2018-05-14T10:10:28.081Z,66.60
2018-05-14T10:12:56.944Z,69.60
2018-05-14T10:15:26.519Z,67.60
2018-05-14T10:17:55.338Z,67.60
2018-05-14T10:20:24.097Z,67.50
2018-05-14T10:22:53.618Z,70.00
2018-05-14T10:25:22.400Z,70.00
2018-05-14T10:27:51.917Z,68.70
2018-05-14T10:30:20.681Z,68.90
2018-05-14T10:32:50.197Z,65.90
2018-05-14T10:35:18.950Z,65.90
2018-05-14T10:37:47.729Z,66.00
2018-05-14T10:40:16.492Z,68.30
2018-05-14T10:42:47.392Z,66.00
2018-05-14T10:45:16.214Z,68.40
2018-05-14T10:47:45.398Z,68.10
2018-05-14T10:50:14.926Z,66.60
2018-05-14T10:52:43.857Z,66.50
2018-05-14T10:55:12.538Z,68.40
2018-05-14T10:57:41.426Z,66.10
2018-05-14T11:00:10.939Z,66.70
2018-05-14T11:02:39.669Z,66.60
2018-05-14T11:05:09.740Z,66.10
2018-05-14T11:07:39.228Z,66.60
2018-05-14T11:10:08.768Z,66.40
2018-05-14T11:12:37.551Z,66.40
2018-05-14T11:15:06.301Z,66.50
2018-05-14T11:17:35.984Z,67.90
2018-05-14T11:20:04.847Z,67.00
2018-05-14T11:22:33.647Z,66.20
2018-05-14T11:25:02.884Z,66.20
2018-05-14T11:27:31.722Z,67.20
2018-05-14T11:30:00.416Z,67.50
2018-05-14T11:32:29.152Z,65.90
2018-05-14T11:34:57.952Z,66.20
2018-05-14T11:37:27.468Z,65.40
2018-05-14T11:39:56.360Z,65.40
2018-05-14T11:42:25.980Z,63.90
2018-05-14T11:44:55.719Z,66.00
2018-05-14T11:47:24.471Z,65.90
2018-05-14T11:49:53.251Z,65.80
2018-05-14T11:52:22.000Z,66.50
2018-05-14T11:54:50.802Z,65.90
2018-05-14T11:57:19.584Z,64.60
2018-05-14T11:59:48.416Z,64.60
2018-05-14T12:02:17.993Z,65.20
2018-05-14T12:04:46.881Z,65.20
2018-05-14T12:07:16.695Z,66.40
2018-05-14T12:09:45.493Z,66.20
2018-05-14T12:12:14.510Z,66.50
2018-05-14T12:14:43.325Z,67.30
2018-05-14T12:17:12.114Z,66.60
2018-05-14T12:19:40.946Z,67.10
2018-05-14T12:22:09.678Z,67.90
2018-05-14T12:24:38.477Z,69.10
2018-05-14T12:27:07.288Z,69.10
2018-05-14T12:29:36.094Z,68.10
2018-05-14T12:32:05.853Z,67.70
2018-05-14T12:34:34.645Z,67.70
2018-05-14T12:37:04.716Z,67.20
2018-05-14T12:39:33.486Z,67.20
2018-05-14T12:42:02.216Z,66.90
2018-05-14T12:44:31.799Z,66.70
2018-05-14T12:47:00.551Z,66.70
2018-05-14T12:49:29.331Z,64.80
2018-05-14T12:51:58.174Z,64.30
2018-05-14T12:54:26.862Z,64.90
2018-05-14T12:56:55.631Z,63.40
2018-05-14T12:59:24.598Z,63.80
2018-05-14T13:01:53.416Z,63.60
2018-05-14T13:04:22.318Z,63.40
2018-05-14T13:06:51.304Z,64.60
2018-05-14T13:09:22.118Z,64.90
2018-05-14T13:11:51.450Z,63.50
2018-05-14T13:14:20.174Z,63.30
2018-05-14T13:16:49.373Z,63.80
2018-05-14T13:19:18.208Z,65.30
2018-05-14T13:21:47.244Z,65.50
2018-05-14T13:24:17.206Z,64.00
2018-05-14T13:26:45.991Z,63.70
2018-05-14T13:29:15.282Z,63.80
2018-05-14T13:31:44.793Z,64.40
2018-05-14T13:34:13.613Z,65.10
2018-05-14T13:36:42.407Z,64.70
2018-05-14T13:39:12.017Z,66.00
2018-05-14T13:41:41.054Z,66.10
2018-05-14T13:44:09.963Z,65.60
2018-05-14T13:46:39.545Z,65.60
2018-05-14T13:49:08.344Z,65.00
2018-05-14T13:51:37.111Z,64.20
2018-05-14T13:54:06.344Z,65.20
2018-05-14T13:56:35.964Z,66.80
2018-05-14T13:59:05.636Z,66.70
2018-05-14T14:01:36.303Z,65.00
2018-05-14T14:04:05.208Z,65.00
2018-05-14T14:06:35.094Z,65.80
2018-05-14T14:09:03.945Z,64.90
2018-05-14T14:11:33.537Z,63.40
2018-05-14T14:14:02.230Z,64.00
2018-05-14T14:16:30.995Z,66.30
2018-05-14T14:18:59.806Z,66.40
2018-05-14T14:21:30.860Z,67.60
2018-05-14T14:23:59.972Z,65.30
2018-05-14T14:26:29.832Z,65.50
2018-05-14T14:28:58.601Z,65.10
2018-05-14T14:31:27.390Z,65.80
2018-05-14T14:33:56.134Z,64.20
2018-05-14T14:36:24.966Z,63.60
2018-05-14T14:38:53.728Z,63.70
2018-05-14T14:41:23.312Z,62.00
2018-05-14T14:43:52.737Z,62.60
2018-05-14T14:46:22.302Z,62.90
2018-05-14T14:48:52.076Z,63.10
2018-05-14T14:51:20.949Z,60.80
2018-05-14T14:53:49.851Z,61.10
2018-05-14T14:56:18.964Z,61.70
2018-05-14T14:58:48.278Z,62.50
2018-05-14T15:01:17.680Z,62.50
2018-05-14T15:03:46.505Z,62.80
2018-05-14T15:06:15.372Z,63.20
2018-05-14T15:08:45.690Z,61.10
2018-05-14T15:11:20.100Z,60.60
2018-05-14T15:13:48.899Z,60.00
2018-05-14T15:16:17.741Z,62.30
2018-05-14T15:18:51.553Z,61.90
2018-05-14T15:21:23.812Z,62.00
2018-05-14T15:23:52.684Z,62.50
2018-05-14T15:26:21.531Z,61.70
2018-05-14T15:31:32.869Z,63.20
2018-05-14T15:34:02.461Z,63.60
2018-05-14T15:36:31.335Z,63.50
2018-05-14T15:39:01.675Z,63.60
2018-05-14T15:41:35.547Z,64.30
2018-05-14T15:44:06.396Z,65.80
2018-05-14T15:46:35.886Z,64.80
2018-05-14T15:49:06.957Z,64.50
2018-05-14T15:51:42.420Z,64.20
2018-05-14T15:54:11.193Z,63.70
2018-05-14T15:56:40.016Z,64.00
2018-05-14T15:59:12.087Z,62.40
2018-05-14T16:01:42.080Z,62.70
2018-05-14T16:04:12.232Z,63.50
2018-05-14T16:06:41.069Z,63.90
2018-05-14T16:09:09.897Z,63.70
2018-05-14T16:11:41.815Z,64.90
2018-05-14T16:14:10.540Z,64.30
2018-05-14T16:16:39.285Z,64.90
2018-05-14T16:19:11.821Z,65.60
2018-05-14T16:21:41.659Z,65.40
2018-05-14T16:24:10.485Z,65.60
2018-05-14T16:26:39.621Z,64.60
2018-05-14T16:29:15.785Z,64.40
2018-05-14T16:31:46.787Z,63.90
2018-05-14T16:34:15.567Z,64.90
2018-05-14T16:36:45.176Z,64.70
2018-05-14T16:39:17.001Z,64.70
2018-05-14T16:41:46.538Z,64.40
2018-05-14T16:44:15.933Z,64.40
2018-05-14T16:46:45.457Z,64.60
2018-05-14T16:49:14.213Z,64.50
2018-05-14T16:51:43.021Z,64.00
2018-05-14T16:54:12.540Z,64.00
2018-05-14T16:56:41.264Z,63.90
2018-05-14T16:59:10.100Z,64.80
2018-05-14T17:01:38.976Z,65.10
2018-05-14T17:04:07.795Z,65.40
2018-05-14T17:06:36.961Z,65.80
2018-05-14T17:09:05.720Z,66.60
2018-05-14T17:11:34.477Z,66.80
2018-05-14T17:14:03.753Z,66.10
2018-05-14T17:16:32.513Z,65.00
2018-05-14T17:19:01.270Z,64.60
2018-05-14T17:21:30.135Z,65.20
2018-05-14T17:23:58.894Z,66.50
2018-05-14T17:26:27.687Z,67.00
2018-05-14T17:28:56.420Z,66.60
2018-05-14T17:31:25.218Z,65.50
2018-05-14T17:33:54.003Z,65.00
2018-05-14T17:36:23.672Z,65.50
2018-05-14T17:38:52.404Z,65.30
2018-05-14T17:41:21.187Z,65.20
2018-05-14T17:43:50.912Z,65.40
2018-05-14T17:46:19.903Z,66.50
2018-05-14T17:48:48.802Z,65.50
2018-05-14T17:51:19.390Z,66.00
2018-05-14T17:53:49.082Z,66.00
2018-05-14T17:56:18.705Z,65.10
2018-05-14T17:58:47.508Z,64.10
2018-05-14T18:01:16.409Z,65.50
2018-05-14T18:03:45.665Z,65.70
2018-05-14T18:06:15.066Z,66.30
2018-05-14T18:08:43.845Z,65.60
2018-05-14T18:11:12.699Z,65.50
2018-05-14T18:13:41.914Z,65.90
2018-05-14T18:16:12.381Z,65.10
2018-05-14T18:18:41.810Z,65.10
2018-05-14T18:21:12.226Z,66.40
2018-05-14T18:23:47.067Z,67.30
2018-05-14T18:26:17.768Z,66.80
2018-05-14T18:28:49.083Z,67.30
2018-05-14T18:31:25.471Z,67.60
2018-05-14T18:33:54.260Z,66.40
2018-05-14T18:36:23.089Z,66.50
2018-05-14T18:38:52.749Z,66.30
2018-05-14T18:41:21.536Z,66.20
2018-05-14T18:43:50.472Z,67.10
2018-05-14T18:46:19.248Z,67.40
2018-05-14T18:48:49.109Z,67.50
2018-05-14T18:51:18.698Z,67.50
2018-05-14T18:53:47.572Z,67.40
2018-05-14T18:56:16.369Z,66.10
2018-05-14T18:58:45.185Z,65.90
2018-05-14T19:01:15.669Z,65.20
2018-05-14T19:03:45.943Z,65.20
2018-05-14T19:06:14.794Z,64.60
2018-05-14T19:08:43.579Z,65.10
2018-05-14T19:11:17.864Z,64.50
2018-05-14T19:13:47.220Z,65.20
2018-05-14T19:16:21.450Z,64.80
2018-05-14T19:18:50.304Z,65.10
2018-05-14T19:21:19.256Z,66.40
2018-05-14T19:23:53.922Z,65.60
2018-05-14T19:26:22.660Z,65.40
2018-05-14T19:28:57.716Z,68.30
2018-05-14T19:31:26.454Z,68.30
2018-05-14T19:34:00.826Z,68.40
2018-05-14T19:36:29.611Z,66.60
2018-05-14T19:38:59.085Z,66.40
2018-05-14T19:41:27.933Z,66.60
2018-05-14T19:43:56.762Z,65.80
2018-05-14T19:46:26.298Z,65.10
2018-05-14T19:48:55.837Z,65.40
2018-05-14T19:51:25.584Z,65.40
2018-05-14T19:53:54.323Z,65.80
2018-05-14T19:56:23.139Z,66.30
2018-05-14T19:58:51.873Z,67.20
2018-05-14T20:01:20.625Z,66.30
2018-05-14T20:03:49.745Z,65.40
2018-05-14T20:06:20.883Z,67.10
2018-05-14T20:08:50.424Z,67.00
2018-05-14T20:11:19.703Z,66.80
2018-05-14T20:13:51.020Z,66.30
2018-05-14T20:16:19.796Z,66.20
2018-05-14T20:18:49.620Z,66.50
2018-05-14T20:21:18.392Z,66.70
2018-05-14T20:23:47.142Z,66.40
2018-05-14T20:26:15.894Z,65.90
2018-05-14T20:28:44.806Z,65.40
2018-05-14T20:31:14.364Z,67.20
2018-05-14T20:33:43.189Z,67.20
2018-05-14T20:36:12.750Z,65.90
2018-05-14T20:38:42.423Z,65.90
2018-05-14T20:41:11.934Z,66.00
2018-05-14T20:43:41.887Z,65.90
2018-05-14T20:46:10.628Z,65.90
2018-05-14T20:48:39.402Z,64.70
2018-05-14T20:51:08.907Z,64.40
2018-05-14T20:53:37.638Z,63.30
2018-05-14T20:56:06.440Z,64.70
2018-05-14T20:58:35.225Z,65.60
2018-05-14T21:01:04.914Z,65.20
2018-05-14T21:03:33.695Z,65.60
2018-05-14T21:06:03.243Z,67.10
2018-05-14T21:08:32.564Z,67.20
2018-05-14T21:11:01.290Z,66.60
2018-05-14T21:13:30.828Z,66.60
2018-05-14T21:15:59.626Z,66.50
2018-05-14T21:18:28.698Z,65.60
2018-05-14T21:20:57.486Z,65.50
2018-05-14T21:23:26.220Z,64.30
2018-05-14T21:25:58.163Z,65.50
2018-05-14T21:28:27.674Z,67.30
2018-05-14T21:30:56.439Z,67.20
2018-05-14T21:33:25.178Z,66.10
2018-05-14T21:35:54.075Z,65.10
2018-05-14T21:38:22.853Z,65.30
2018-05-14T21:40:51.688Z,67.00
2018-05-14T21:43:21.399Z,66.30
2018-05-14T21:45:51.809Z,65.40
2018-05-14T21:48:21.521Z,67.50
2018-05-14T21:50:52.162Z,66.30
2018-05-14T21:53:21.557Z,66.20
2018-05-14T21:55:52.237Z,66.30
2018-05-14T21:58:21.549Z,66.20
2018-05-14T22:00:51.380Z,66.60
2018-05-14T22:03:20.155Z,66.40
2018-05-14T22:05:50.704Z,69.00
2018-05-14T22:08:19.621Z,68.50
2018-05-14T22:10:49.115Z,67.60
2018-05-14T22:13:17.914Z,67.40
2018-05-14T22:15:46.684Z,66.20
2018-05-14T22:18:15.492Z,67.10
2018-05-14T22:20:44.211Z,67.30
2018-05-14T22:23:12.974Z,66.40
2018-05-14T22:25:41.760Z,65.80
2018-05-14T22:28:11.296Z,65.80
2018-05-14T22:30:40.179Z,65.80
2018-05-14T22:33:09.192Z,65.00
2018-05-14T22:35:37.927Z,65.90
2018-05-14T22:38:06.749Z,67.30
2018-05-14T22:40:35.601Z,65.40
2018-05-14T22:43:05.278Z,65.90
2018-05-14T22:45:34.709Z,67.60
2018-05-14T22:48:03.563Z,65.60
2018-05-14T22:50:32.343Z,64.70
2018-05-14T22:53:01.757Z,66.80
2018-05-14T22:55:30.572Z,67.60
2018-05-14T22:57:59.319Z,68.50
2018-05-14T23:00:28.078Z,67.60
2018-05-14T23:02:57.188Z,67.00
2018-05-14T23:05:25.960Z,67.00
2018-05-14T23:07:54.732Z,66.20
2018-05-14T23:10:23.581Z,68.30
2018-05-14T23:12:53.985Z,66.70
2018-05-14T23:15:22.759Z,66.60
2018-05-14T23:17:52.133Z,66.40
2018-05-14T23:20:20.963Z,68.90
2018-05-14T23:22:49.733Z,69.80
2018-05-14T23:25:18.522Z,68.10
2018-05-14T23:27:48.044Z,68.00
2018-05-14T23:30:16.774Z,68.00
2018-05-14T23:32:45.558Z,67.00
2018-05-14T23:35:14.858Z,67.20
2018-05-14T23:37:43.648Z,68.10
2018-05-14T23:40:12.405Z,67.20
2018-05-14T23:42:41.161Z,65.00
2018-05-14T23:45:09.905Z,69.60
2018-05-14T23:47:39.869Z,68.10
2018-05-14T23:50:09.901Z,68.50
2018-05-14T23:52:39.425Z,69.70
2018-05-14T23:55:08.156Z,69.60
2018-05-14T23:57:36.899Z,69.00
